sensor_id;sensor_type;location;lat;lon;timestamp;temperature;humidity
5938;DHT22;2994;51.220;4.412;2022-12-18T00:01:05;0.51;68.58
5938;DHT22;2994;51.220;4.412;2022-12-18T00:03:35;0.50;68.49
5938;DHT22;2994;51.220;4.412;2022-12-18T00:06:01;0.52;68.29
5938;DHT22;2994;51.220;4.412;2022-12-18T00:08:27;0.50;68.34
5938;DHT22;2994;51.220;4.412;2022-12-18T00:10:53;0.53;68.23
5938;DHT22;2994;51.220;4.412;2022-12-18T00:13:18;0.45;68.39
5938;DHT22;2994;51.220;4.412;2022-12-18T00:15:43;0.43;68.07
5938;DHT22;2994;51.220;4.412;2022-12-18T00:18:09;0.46;67.60
5938;DHT22;2994;51.220;4.412;2022-12-18T00:20:38;0.43;67.66
5938;DHT22;2994;51.220;4.412;2022-12-18T00:23:05;0.29;68.35
5938;DHT22;2994;51.220;4.412;2022-12-18T00:25:34;0.37;67.79
5938;DHT22;2994;51.220;4.412;2022-12-18T00:28:03;0.38;67.70
5938;DHT22;2994;51.220;4.412;2022-12-18T00:30:29;0.33;67.76
5938;DHT22;2994;51.220;4.412;2022-12-18T00:32:54;0.35;67.72
5938;DHT22;2994;51.220;4.412;2022-12-18T00:35:20;0.37;67.57
5938;DHT22;2994;51.220;4.412;2022-12-18T00:37:45;0.36;67.49
5938;DHT22;2994;51.220;4.412;2022-12-18T00:40:11;0.35;67.64
5938;DHT22;2994;51.220;4.412;2022-12-18T00:42:37;0.33;67.63
5938;DHT22;2994;51.220;4.412;2022-12-18T00:45:21;0.30;67.62
5938;DHT22;2994;51.220;4.412;2022-12-18T00:47:46;0.28;67.84
5938;DHT22;2994;51.220;4.412;2022-12-18T00:50:12;0.30;67.72
5938;DHT22;2994;51.220;4.412;2022-12-18T00:52:37;0.36;67.68
5938;DHT22;2994;51.220;4.412;2022-12-18T00:55:03;0.42;67.50
5938;DHT22;2994;51.220;4.412;2022-12-18T00:57:29;0.40;67.34
5938;DHT22;2994;51.220;4.412;2022-12-18T00:59:54;0.44;67.22
5938;DHT22;2994;51.220;4.412;2022-12-18T01:02:19;0.34;67.53
5938;DHT22;2994;51.220;4.412;2022-12-18T01:04:45;0.40;67.22
5938;DHT22;2994;51.220;4.412;2022-12-18T01:07:10;0.35;67.33
5938;DHT22;2994;51.220;4.412;2022-12-18T01:09:36;0.36;66.94
5938;DHT22;2994;51.220;4.412;2022-12-18T01:12:01;0.36;67.18
5938;DHT22;2994;51.220;4.412;2022-12-18T01:14:27;0.37;66.87
5938;DHT22;2994;51.220;4.412;2022-12-18T01:16:52;0.43;66.72
5938;DHT22;2994;51.220;4.412;2022-12-18T01:19:17;0.42;66.81
5938;DHT22;2994;51.220;4.412;2022-12-18T01:21:43;0.38;66.69
5938;DHT22;2994;51.220;4.412;2022-12-18T01:24:11;0.43;66.20
5938;DHT22;2994;51.220;4.412;2022-12-18T01:26:37;0.30;66.65
5938;DHT22;2994;51.220;4.412;2022-12-18T01:29:02;0.15;67.12
5938;DHT22;2994;51.220;4.412;2022-12-18T01:31:30;0.32;66.38
5938;DHT22;2994;51.220;4.412;2022-12-18T01:33:56;0.25;66.72
5938;DHT22;2994;51.220;4.412;2022-12-18T01:36:26;0.38;66.30
5938;DHT22;2994;51.220;4.412;2022-12-18T01:38:53;0.34;66.14
5938;DHT22;2994;51.220;4.412;2022-12-18T01:41:25;0.31;66.14
5938;DHT22;2994;51.220;4.412;2022-12-18T01:43:57;0.40;66.13
5938;DHT22;2994;51.220;4.412;2022-12-18T01:46:24;0.15;66.56
5938;DHT22;2994;51.220;4.412;2022-12-18T01:48:53;0.31;66.05
5938;DHT22;2994;51.220;4.412;2022-12-18T01:51:21;0.27;66.09
5938;DHT22;2994;51.220;4.412;2022-12-18T01:53:47;0.21;66.07
5938;DHT22;2994;51.220;4.412;2022-12-18T01:56:15;0.23;65.93
5938;DHT22;2994;51.220;4.412;2022-12-18T01:58:46;0.23;66.07
5938;DHT22;2994;51.220;4.412;2022-12-18T02:01:13;0.25;65.81
5938;DHT22;2994;51.220;4.412;2022-12-18T02:03:41;0.07;66.21
5938;DHT22;2994;51.220;4.412;2022-12-18T02:11:59;0.28;65.49
5938;DHT22;2994;51.220;4.412;2022-12-18T02:15:00;0.05;65.73
5938;DHT22;2994;51.220;4.412;2022-12-18T02:17:49;0.20;65.53
5938;DHT22;2994;51.220;4.412;2022-12-18T02:29:09;0.10;65.46
5938;DHT22;2994;51.220;4.412;2022-12-18T02:31:42;0.06;65.72
5938;DHT22;2994;51.220;4.412;2022-12-18T02:34:09;0.08;65.69
5938;DHT22;2994;51.220;4.412;2022-12-18T02:36:39;0.13;65.24
5938;DHT22;2994;51.220;4.412;2022-12-18T02:39:07;0.20;65.06
5938;DHT22;2994;51.220;4.412;2022-12-18T02:41:34;0.05;65.42
5938;DHT22;2994;51.220;4.412;2022-12-18T02:44:07;0.19;64.97
5938;DHT22;2994;51.220;4.412;2022-12-18T02:46:36;0.22;64.77
5938;DHT22;2994;51.220;4.412;2022-12-18T02:49:44;-0.00;65.27
5938;DHT22;2994;51.220;4.412;2022-12-18T02:57:52;0.15;64.48
5938;DHT22;2994;51.220;4.412;2022-12-18T03:00:23;0.01;64.98
5938;DHT22;2994;51.220;4.412;2022-12-18T03:02:57;0.02;64.97
5938;DHT22;2994;51.220;4.412;2022-12-18T03:06:17;0.08;64.43
5938;DHT22;2994;51.220;4.412;2022-12-18T03:08:24;0.08;64.27
5938;DHT22;2994;51.220;4.412;2022-12-18T03:11:06;0.07;64.27
5938;DHT22;2994;51.220;4.412;2022-12-18T03:16:17;0.18;63.85
5938;DHT22;2994;51.220;4.412;2022-12-18T03:18:48;0.08;64.12
5938;DHT22;2994;51.220;4.412;2022-12-18T03:21:17;0.02;64.09
5938;DHT22;2994;51.220;4.412;2022-12-18T03:23:49;0.01;64.38
5938;DHT22;2994;51.220;4.412;2022-12-18T03:26:18;0.16;63.48
5938;DHT22;2994;51.220;4.412;2022-12-18T03:28:54;-0.23;64.65
5938;DHT22;2994;51.220;4.412;2022-12-18T03:31:23;-0.03;64.17
5938;DHT22;2994;51.220;4.412;2022-12-18T03:33:59;-0.13;64.37
5938;DHT22;2994;51.220;4.412;2022-12-18T03:36:26;0.05;63.82
5938;DHT22;2994;51.220;4.412;2022-12-18T03:38:52;0.03;64.01
5938;DHT22;2994;51.220;4.412;2022-12-18T03:41:32;-0.03;64.29
5938;DHT22;2994;51.220;4.412;2022-12-18T03:47:14;0.14;63.05
5938;DHT22;2994;51.220;4.412;2022-12-18T03:50:05;0.12;63.01
5938;DHT22;2994;51.220;4.412;2022-12-18T03:52:46;0.12;63.16
5938;DHT22;2994;51.220;4.412;2022-12-18T03:55:14;0.22;63.03
5938;DHT22;2994;51.220;4.412;2022-12-18T03:57:42;0.24;62.95
5938;DHT22;2994;51.220;4.412;2022-12-18T04:00:13;0.29;62.78
5938;DHT22;2994;51.220;4.412;2022-12-18T04:02:45;0.30;62.73
5938;DHT22;2994;51.220;4.412;2022-12-18T04:05:15;0.27;62.76
5938;DHT22;2994;51.220;4.412;2022-12-18T04:07:42;0.29;62.74
5938;DHT22;2994;51.220;4.412;2022-12-18T04:10:09;0.30;62.74
5938;DHT22;2994;51.220;4.412;2022-12-18T04:12:37;0.31;62.57
5938;DHT22;2994;51.220;4.412;2022-12-18T04:15:02;0.33;62.66
5938;DHT22;2994;51.220;4.412;2022-12-18T04:17:28;0.28;62.41
5938;DHT22;2994;51.220;4.412;2022-12-18T04:19:53;0.31;62.26
5938;DHT22;2994;51.220;4.412;2022-12-18T04:22:19;0.36;61.68
5938;DHT22;2994;51.220;4.412;2022-12-18T04:24:44;0.40;61.27
5938;DHT22;2994;51.220;4.412;2022-12-18T04:27:10;0.43;61.28
5938;DHT22;2994;51.220;4.412;2022-12-18T04:29:35;0.46;61.22
5938;DHT22;2994;51.220;4.412;2022-12-18T04:32:00;0.45;61.26
5938;DHT22;2994;51.220;4.412;2022-12-18T04:34:26;0.49;61.27
5938;DHT22;2994;51.220;4.412;2022-12-18T04:36:51;0.52;61.09
5938;DHT22;2994;51.220;4.412;2022-12-18T04:39:17;0.50;60.73
5938;DHT22;2994;51.220;4.412;2022-12-18T04:41:42;0.50;60.95
5938;DHT22;2994;51.220;4.412;2022-12-18T04:44:08;0.54;60.97
5938;DHT22;2994;51.220;4.412;2022-12-18T04:46:33;0.54;61.29
5938;DHT22;2994;51.220;4.412;2022-12-18T04:48:58;0.58;61.16
5938;DHT22;2994;51.220;4.412;2022-12-18T04:51:24;0.58;61.12
5938;DHT22;2994;51.220;4.412;2022-12-18T04:53:49;0.63;60.98
5938;DHT22;2994;51.220;4.412;2022-12-18T04:56:15;0.63;60.91
5938;DHT22;2994;51.220;4.412;2022-12-18T04:58:43;0.55;60.90
5938;DHT22;2994;51.220;4.412;2022-12-18T05:01:10;0.59;60.83
5938;DHT22;2994;51.220;4.412;2022-12-18T05:03:37;0.59;60.82
5938;DHT22;2994;51.220;4.412;2022-12-18T05:06:03;0.51;60.86
5938;DHT22;2994;51.220;4.412;2022-12-18T05:08:29;0.49;60.83
5938;DHT22;2994;51.220;4.412;2022-12-18T05:11:08;0.42;61.00
5938;DHT22;2994;51.220;4.412;2022-12-18T05:13:35;0.51;60.86
5938;DHT22;2994;51.220;4.412;2022-12-18T05:16:00;0.53;60.73
5938;DHT22;2994;51.220;4.412;2022-12-18T05:18:30;0.51;61.02
5938;DHT22;2994;51.220;4.412;2022-12-18T05:20:56;0.47;60.72
5938;DHT22;2994;51.220;4.412;2022-12-18T05:23:23;0.46;60.72
5938;DHT22;2994;51.220;4.412;2022-12-18T05:25:57;0.49;60.82
5938;DHT22;2994;51.220;4.412;2022-12-18T05:28:24;0.49;60.73
5938;DHT22;2994;51.220;4.412;2022-12-18T05:30:52;0.42;60.75
5938;DHT22;2994;51.220;4.412;2022-12-18T05:33:19;0.19;60.93
5938;DHT22;2994;51.220;4.412;2022-12-18T05:35:57;0.25;60.60
5938;DHT22;2994;51.220;4.412;2022-12-18T05:38:24;0.22;60.42
5938;DHT22;2994;51.220;4.412;2022-12-18T05:40:51;0.24;60.22
5938;DHT22;2994;51.220;4.412;2022-12-18T05:43:18;0.25;60.09
5938;DHT22;2994;51.220;4.412;2022-12-18T05:45:43;0.20;60.26
5938;DHT22;2994;51.220;4.412;2022-12-18T05:48:13;0.20;60.22
5938;DHT22;2994;51.220;4.412;2022-12-18T05:50:40;0.21;60.16
5938;DHT22;2994;51.220;4.412;2022-12-18T05:53:06;0.22;60.07
5938;DHT22;2994;51.220;4.412;2022-12-18T05:55:35;0.28;60.06
5938;DHT22;2994;51.220;4.412;2022-12-18T05:58:05;0.23;60.06
5938;DHT22;2994;51.220;4.412;2022-12-18T06:00:33;0.20;59.95
5938;DHT22;2994;51.220;4.412;2022-12-18T06:03:00;0.22;59.54
5938;DHT22;2994;51.220;4.412;2022-12-18T06:05:26;0.23;59.61
5938;DHT22;2994;51.220;4.412;2022-12-18T06:07:51;0.08;59.99
5938;DHT22;2994;51.220;4.412;2022-12-18T06:10:17;0.16;59.90
5938;DHT22;2994;51.220;4.412;2022-12-18T06:12:43;0.17;59.79
5938;DHT22;2994;51.220;4.412;2022-12-18T06:15:08;-0.06;58.96
5938;DHT22;2994;51.220;4.412;2022-12-18T06:17:35;-0.02;59.57
5938;DHT22;2994;51.220;4.412;2022-12-18T06:20:01;-0.01;59.41
5938;DHT22;2994;51.220;4.412;2022-12-18T06:22:27;0.08;58.80
5938;DHT22;2994;51.220;4.412;2022-12-18T06:24:52;0.05;58.70
5938;DHT22;2994;51.220;4.412;2022-12-18T06:27:18;0.08;58.70
5938;DHT22;2994;51.220;4.412;2022-12-18T06:29:43;-0.08;58.92
5938;DHT22;2994;51.220;4.412;2022-12-18T06:32:09;-0.05;58.77
5938;DHT22;2994;51.220;4.412;2022-12-18T06:34:36;-0.11;58.80
5938;DHT22;2994;51.220;4.412;2022-12-18T06:37:01;-0.06;58.72
5938;DHT22;2994;51.220;4.412;2022-12-18T06:39:27;-0.10;58.89
5938;DHT22;2994;51.220;4.412;2022-12-18T06:41:53;-0.10;58.99
5938;DHT22;2994;51.220;4.412;2022-12-18T06:44:18;-0.12;59.09
5938;DHT22;2994;51.220;4.412;2022-12-18T06:46:44;-0.10;59.13
5938;DHT22;2994;51.220;4.412;2022-12-18T06:49:10;-0.03;58.95
5938;DHT22;2994;51.220;4.412;2022-12-18T06:51:35;-0.02;58.88
5938;DHT22;2994;51.220;4.412;2022-12-18T06:54:01;-0.00;59.19
5938;DHT22;2994;51.220;4.412;2022-12-18T06:56:26;0.05;59.05
5938;DHT22;2994;51.220;4.412;2022-12-18T06:58:52;0.05;58.92
5938;DHT22;2994;51.220;4.412;2022-12-18T07:01:18;0.06;58.81
5938;DHT22;2994;51.220;4.412;2022-12-18T07:03:43;0.09;58.73
5938;DHT22;2994;51.220;4.412;2022-12-18T07:06:17;0.14;58.74
5938;DHT22;2994;51.220;4.412;2022-12-18T07:08:46;0.04;58.71
5938;DHT22;2994;51.220;4.412;2022-12-18T07:11:11;0.05;58.38
5938;DHT22;2994;51.220;4.412;2022-12-18T07:13:37;0.05;58.45
5938;DHT22;2994;51.220;4.412;2022-12-18T07:16:06;-0.06;58.20
5938;DHT22;2994;51.220;4.412;2022-12-18T07:18:32;-0.02;57.89
5938;DHT22;2994;51.220;4.412;2022-12-18T07:20:57;0.01;57.78
5938;DHT22;2994;51.220;4.412;2022-12-18T07:23:23;-0.02;57.71
5938;DHT22;2994;51.220;4.412;2022-12-18T07:25:48;-0.30;57.72
5938;DHT22;2994;51.220;4.412;2022-12-18T07:28:14;-0.22;57.77
5938;DHT22;2994;51.220;4.412;2022-12-18T07:30:40;-0.21;58.03
5938;DHT22;2994;51.220;4.412;2022-12-18T07:33:05;-0.27;57.88
5938;DHT22;2994;51.220;4.412;2022-12-18T07:35:32;-0.36;58.19
5938;DHT22;2994;51.220;4.412;2022-12-18T07:37:58;-0.29;57.98
5938;DHT22;2994;51.220;4.412;2022-12-18T07:40:23;-0.26;58.02
5938;DHT22;2994;51.220;4.412;2022-12-18T07:42:49;-0.27;57.96
5938;DHT22;2994;51.220;4.412;2022-12-18T07:45:14;-0.55;58.25
5938;DHT22;2994;51.220;4.412;2022-12-18T07:47:39;-0.79;58.63
5938;DHT22;2994;51.220;4.412;2022-12-18T07:50:06;-0.61;58.53
5938;DHT22;2994;51.220;4.412;2022-12-18T07:52:32;-0.74;58.35
5938;DHT22;2994;51.220;4.412;2022-12-18T07:54:57;-0.59;58.32
5938;DHT22;2994;51.220;4.412;2022-12-18T07:57:23;-0.60;58.51
5938;DHT22;2994;51.220;4.412;2022-12-18T07:59:48;-0.66;58.41
5938;DHT22;2994;51.220;4.412;2022-12-18T08:02:14;-0.80;58.86
5938;DHT22;2994;51.220;4.412;2022-12-18T08:04:39;-0.58;58.49
5938;DHT22;2994;51.220;4.412;2022-12-18T08:07:05;-0.57;58.47
5938;DHT22;2994;51.220;4.412;2022-12-18T08:09:30;-0.47;58.33
5938;DHT22;2994;51.220;4.412;2022-12-18T08:11:56;-0.43;58.26
5938;DHT22;2994;51.220;4.412;2022-12-18T08:14:21;-0.46;58.47
5938;DHT22;2994;51.220;4.412;2022-12-18T08:16:47;-0.67;58.64
5938;DHT22;2994;51.220;4.412;2022-12-18T08:19:13;-0.66;58.90
5938;DHT22;2994;51.220;4.412;2022-12-18T08:21:38;-0.59;58.43
5938;DHT22;2994;51.220;4.412;2022-12-18T08:24:04;-0.61;58.83
5938;DHT22;2994;51.220;4.412;2022-12-18T08:26:30;-0.54;58.77
5938;DHT22;2994;51.220;4.412;2022-12-18T08:28:58;-0.45;58.73
5938;DHT22;2994;51.220;4.412;2022-12-18T08:31:25;-0.44;58.60
5938;DHT22;2994;51.220;4.412;2022-12-18T08:33:52;-0.39;58.67
5938;DHT22;2994;51.220;4.412;2022-12-18T08:36:19;-0.28;58.40
5938;DHT22;2994;51.220;4.412;2022-12-18T08:38:45;-0.54;59.04
5938;DHT22;2994;51.220;4.412;2022-12-18T08:41:12;-0.29;58.49
5938;DHT22;2994;51.220;4.412;2022-12-18T08:43:38;-0.39;58.58
5938;DHT22;2994;51.220;4.412;2022-12-18T08:46:24;-0.21;58.15
5938;DHT22;2994;51.220;4.412;2022-12-18T08:48:51;-0.09;57.93
5938;DHT22;2994;51.220;4.412;2022-12-18T08:51:17;-0.03;57.88
5938;DHT22;2994;51.220;4.412;2022-12-18T08:53:43;-0.19;58.49
5938;DHT22;2994;51.220;4.412;2022-12-18T08:56:09;0.04;58.10
5938;DHT22;2994;51.220;4.412;2022-12-18T08:58:35;0.06;58.06
5938;DHT22;2994;51.220;4.412;2022-12-18T09:01:06;0.04;58.19
5938;DHT22;2994;51.220;4.412;2022-12-18T09:03:32;0.15;57.76
5938;DHT22;2994;51.220;4.412;2022-12-18T09:05:58;0.25;57.87
5938;DHT22;2994;51.220;4.412;2022-12-18T09:08:24;0.31;57.64
5938;DHT22;2994;51.220;4.412;2022-12-18T09:10:50;0.14;58.01
5938;DHT22;2994;51.220;4.412;2022-12-18T09:13:17;0.24;57.48
5938;DHT22;2994;51.220;4.412;2022-12-18T09:15:43;0.25;57.13
5938;DHT22;2994;51.220;4.412;2022-12-18T09:18:10;0.12;57.48
5938;DHT22;2994;51.220;4.412;2022-12-18T09:20:36;0.24;57.33
5938;DHT22;2994;51.220;4.412;2022-12-18T09:23:02;0.30;57.48
5938;DHT22;2994;51.220;4.412;2022-12-18T09:25:29;0.31;57.42
5938;DHT22;2994;51.220;4.412;2022-12-18T09:28:02;0.36;57.49
5938;DHT22;2994;51.220;4.412;2022-12-18T09:30:28;0.36;57.61
5938;DHT22;2994;51.220;4.412;2022-12-18T09:32:55;0.32;57.89
5938;DHT22;2994;51.220;4.412;2022-12-18T09:35:20;0.35;58.25
5938;DHT22;2994;51.220;4.412;2022-12-18T09:37:46;0.43;57.82
5938;DHT22;2994;51.220;4.412;2022-12-18T09:40:16;0.50;57.70
5938;DHT22;2994;51.220;4.412;2022-12-18T09:42:46;0.58;58.02
5938;DHT22;2994;51.220;4.412;2022-12-18T09:45:15;0.59;58.25
5938;DHT22;2994;51.220;4.412;2022-12-18T09:47:43;0.69;57.68
5938;DHT22;2994;51.220;4.412;2022-12-18T09:50:30;0.80;57.69
5938;DHT22;2994;51.220;4.412;2022-12-18T09:52:59;0.84;57.71
5938;DHT22;2994;51.220;4.412;2022-12-18T09:55:34;0.86;57.74
5938;DHT22;2994;51.220;4.412;2022-12-18T09:58:28;0.93;57.67
5938;DHT22;2994;51.220;4.412;2022-12-18T10:00:54;0.94;57.71
5938;DHT22;2994;51.220;4.412;2022-12-18T10:03:20;0.96;57.76
5938;DHT22;2994;51.220;4.412;2022-12-18T10:11:32;1.05;57.90
5938;DHT22;2994;51.220;4.412;2022-12-18T10:14:30;1.10;57.63
5938;DHT22;2994;51.220;4.412;2022-12-18T10:17:23;0.80;58.17
5938;DHT22;2994;51.220;4.412;2022-12-18T10:22:55;0.96;58.33
5938;DHT22;2994;51.220;4.412;2022-12-18T10:25:50;1.09;58.01
5938;DHT22;2994;51.220;4.412;2022-12-18T10:28:13;1.02;58.36
5938;DHT22;2994;51.220;4.412;2022-12-18T10:30:40;1.09;58.45
5938;DHT22;2994;51.220;4.412;2022-12-18T10:33:11;1.10;58.48
5938;DHT22;2994;51.220;4.412;2022-12-18T10:35:41;1.19;58.19
5938;DHT22;2994;51.220;4.412;2022-12-18T10:38:22;1.16;58.45
5938;DHT22;2994;51.220;4.412;2022-12-18T10:40:59;1.22;58.48
5938;DHT22;2994;51.220;4.412;2022-12-18T10:43:28;1.10;58.93
5938;DHT22;2994;51.220;4.412;2022-12-18T10:48:39;1.35;58.35
5938;DHT22;2994;51.220;4.412;2022-12-18T10:51:09;1.33;58.69
5938;DHT22;2994;51.220;4.412;2022-12-18T10:53:36;1.36;58.70
5938;DHT22;2994;51.220;4.412;2022-12-18T10:56:03;1.45;58.62
5938;DHT22;2994;51.220;4.412;2022-12-18T10:58:33;1.42;58.38
5938;DHT22;2994;51.220;4.412;2022-12-18T11:03:43;1.52;58.39
5938;DHT22;2994;51.220;4.412;2022-12-18T11:06:15;1.52;58.52
5938;DHT22;2994;51.220;4.412;2022-12-18T11:08:43;1.50;58.39
5938;DHT22;2994;51.220;4.412;2022-12-18T11:11:22;1.63;57.96
5938;DHT22;2994;51.220;4.412;2022-12-18T11:14:04;1.52;58.70
5938;DHT22;2994;51.220;4.412;2022-12-18T11:16:42;1.66;58.57
5938;DHT22;2994;51.220;4.412;2022-12-18T11:19:34;1.55;58.83
5938;DHT22;2994;51.220;4.412;2022-12-18T11:22:03;1.71;58.51
5938;DHT22;2994;51.220;4.412;2022-12-18T11:24:41;1.71;58.74
5938;DHT22;2994;51.220;4.412;2022-12-18T11:27:17;1.69;58.90
5938;DHT22;2994;51.220;4.412;2022-12-18T11:29:43;1.70;59.15
5938;DHT22;2994;51.220;4.412;2022-12-18T11:34:46;1.92;58.80
5938;DHT22;2994;51.220;4.412;2022-12-18T11:37:13;1.88;58.86
5938;DHT22;2994;51.220;4.412;2022-12-18T11:39:46;1.98;58.65
5938;DHT22;2994;51.220;4.412;2022-12-18T11:42:24;2.02;58.91
5938;DHT22;2994;51.220;4.412;2022-12-18T11:44:57;2.05;58.83
5938;DHT22;2994;51.220;4.412;2022-12-18T11:47:52;1.95;59.35
5938;DHT22;2994;51.220;4.412;2022-12-18T11:50:24;2.00;59.20
5938;DHT22;2994;51.220;4.412;2022-12-18T11:52:50;2.06;59.16
5938;DHT22;2994;51.220;4.412;2022-12-18T11:55:30;2.00;59.62
5938;DHT22;2994;51.220;4.412;2022-12-18T12:00:39;2.12;59.61
5938;DHT22;2994;51.220;4.412;2022-12-18T12:03:22;2.19;59.57
5938;DHT22;2994;51.220;4.412;2022-12-18T12:19:47;2.14;60.30
5938;DHT22;2994;51.220;4.412;2022-12-18T12:23:11;2.30;59.90
5938;DHT22;2994;51.220;4.412;2022-12-18T12:30:47;2.43;59.90
5938;DHT22;2994;51.220;4.412;2022-12-18T12:33:38;2.45;59.97
5938;DHT22;2994;51.220;4.412;2022-12-18T12:39:06;2.54;60.11
5938;DHT22;2994;51.220;4.412;2022-12-18T12:41:33;2.55;60.00
5938;DHT22;2994;51.220;4.412;2022-12-18T12:44:34;2.60;60.01
5938;DHT22;2994;51.220;4.412;2022-12-18T12:47:14;2.49;60.48
5938;DHT22;2994;51.220;4.412;2022-12-18T12:49:42;2.59;60.27
5938;DHT22;2994;51.220;4.412;2022-12-18T12:52:16;2.57;59.97
5938;DHT22;2994;51.220;4.412;2022-12-18T12:54:43;2.60;60.25
5938;DHT22;2994;51.220;4.412;2022-12-18T12:57:16;2.58;60.40
5938;DHT22;2994;51.220;4.412;2022-12-18T13:05:44;2.68;60.71
5938;DHT22;2994;51.220;4.412;2022-12-18T13:08:21;2.59;60.98
5938;DHT22;2994;51.220;4.412;2022-12-18T13:10:47;2.64;60.89
5938;DHT22;2994;51.220;4.412;2022-12-18T13:13:14;2.72;60.73
5938;DHT22;2994;51.220;4.412;2022-12-18T13:15:47;2.75;60.79
5938;DHT22;2994;51.220;4.412;2022-12-18T13:31:53;2.89;60.65
5938;DHT22;2994;51.220;4.412;2022-12-18T13:34:18;2.94;60.73
5938;DHT22;2994;51.220;4.412;2022-12-18T13:36:44;2.93;60.93
5938;DHT22;2994;51.220;4.412;2022-12-18T13:41:48;2.93;61.24
5938;DHT22;2994;51.220;4.412;2022-12-18T13:46:50;3.01;61.03
5938;DHT22;2994;51.220;4.412;2022-12-18T13:49:43;2.83;61.52
5938;DHT22;2994;51.220;4.412;2022-12-18T13:52:21;2.94;61.58
5938;DHT22;2994;51.220;4.412;2022-12-18T13:54:50;2.87;61.96
5938;DHT22;2994;51.220;4.412;2022-12-18T13:57:29;2.98;61.72
5938;DHT22;2994;51.220;4.412;2022-12-18T13:59:57;3.03;61.54
5938;DHT22;2994;51.220;4.412;2022-12-18T14:02:25;2.74;62.38
5938;DHT22;2994;51.220;4.412;2022-12-18T14:04:52;2.98;61.83
5938;DHT22;2994;51.220;4.412;2022-12-18T14:07:22;3.05;61.73
5938;DHT22;2994;51.220;4.412;2022-12-18T14:09:54;3.08;61.76
5938;DHT22;2994;51.220;4.412;2022-12-18T14:12:32;3.12;61.74
5938;DHT22;2994;51.220;4.412;2022-12-18T14:18:00;3.14;61.76
5938;DHT22;2994;51.220;4.412;2022-12-18T14:20:28;3.18;61.63
5938;DHT22;2994;51.220;4.412;2022-12-18T14:22:55;3.18;61.59
5938;DHT22;2994;51.220;4.412;2022-12-18T14:25:28;3.13;61.88
5938;DHT22;2994;51.220;4.412;2022-12-18T14:30:36;3.21;61.73
5938;DHT22;2994;51.220;4.412;2022-12-18T14:33:12;3.20;61.92
5938;DHT22;2994;51.220;4.412;2022-12-18T14:35:40;3.21;62.03
5938;DHT22;2994;51.220;4.412;2022-12-18T14:40:46;3.29;62.15
5938;DHT22;2994;51.220;4.412;2022-12-18T14:43:12;3.27;62.32
5938;DHT22;2994;51.220;4.412;2022-12-18T14:45:41;3.14;62.89
5938;DHT22;2994;51.220;4.412;2022-12-18T14:50:54;3.19;62.86
5938;DHT22;2994;51.220;4.412;2022-12-18T14:53:32;3.26;62.58
5938;DHT22;2994;51.220;4.412;2022-12-18T14:56:01;3.14;63.04
5938;DHT22;2994;51.220;4.412;2022-12-18T14:58:27;3.10;63.09
5938;DHT22;2994;51.220;4.412;2022-12-18T15:00:53;3.14;63.02
5938;DHT22;2994;51.220;4.412;2022-12-18T15:03:20;3.05;63.53
5938;DHT22;2994;51.220;4.412;2022-12-18T15:05:46;2.94;64.02
5938;DHT22;2994;51.220;4.412;2022-12-18T15:08:50;3.17;63.27
5938;DHT22;2994;51.220;4.412;2022-12-18T15:11:48;3.04;63.90
5938;DHT22;2994;51.220;4.412;2022-12-18T15:16:53;3.24;63.21
5938;DHT22;2994;51.220;4.412;2022-12-18T15:19:21;3.27;63.18
5938;DHT22;2994;51.220;4.412;2022-12-18T15:21:47;3.34;62.81
5938;DHT22;2994;51.220;4.412;2022-12-18T15:24:24;3.31;63.05
5938;DHT22;2994;51.220;4.412;2022-12-18T15:26:50;3.24;63.18
5938;DHT22;2994;51.220;4.412;2022-12-18T15:29:20;3.31;63.11
5938;DHT22;2994;51.220;4.412;2022-12-18T15:31:58;3.25;63.40
5938;DHT22;2994;51.220;4.412;2022-12-18T15:34:24;3.19;63.76
5938;DHT22;2994;51.220;4.412;2022-12-18T15:36:51;3.33;63.27
5938;DHT22;2994;51.220;4.412;2022-12-18T15:39:17;3.33;63.26
5938;DHT22;2994;51.220;4.412;2022-12-18T15:41:42;3.40;63.14
5938;DHT22;2994;51.220;4.412;2022-12-18T15:44:28;3.48;62.89
5938;DHT22;2994;51.220;4.412;2022-12-18T15:46:53;3.50;62.76
5938;DHT22;2994;51.220;4.412;2022-12-18T15:49:19;3.49;62.84
5938;DHT22;2994;51.220;4.412;2022-12-18T15:51:45;3.53;62.81
5938;DHT22;2994;51.220;4.412;2022-12-18T15:54:14;3.56;62.64
5938;DHT22;2994;51.220;4.412;2022-12-18T15:56:41;3.59;62.54
5938;DHT22;2994;51.220;4.412;2022-12-18T15:59:26;3.60;62.40
5938;DHT22;2994;51.220;4.412;2022-12-18T16:01:51;3.62;62.24
5938;DHT22;2994;51.220;4.412;2022-12-18T16:04:21;3.61;62.16
5938;DHT22;2994;51.220;4.412;2022-12-18T16:06:49;3.64;62.04
5938;DHT22;2994;51.220;4.412;2022-12-18T16:09:16;3.61;62.09
5938;DHT22;2994;51.220;4.412;2022-12-18T16:11:43;3.67;61.93
5938;DHT22;2994;51.220;4.412;2022-12-18T16:14:18;3.69;61.70
5938;DHT22;2994;51.220;4.412;2022-12-18T16:16:45;3.70;61.50
5938;DHT22;2994;51.220;4.412;2022-12-18T16:19:11;3.73;61.44
5938;DHT22;2994;51.220;4.412;2022-12-18T16:21:37;3.73;61.38
5938;DHT22;2994;51.220;4.412;2022-12-18T16:24:02;3.75;61.34
5938;DHT22;2994;51.220;4.412;2022-12-18T16:26:28;3.74;61.28
5938;DHT22;2994;51.220;4.412;2022-12-18T16:28:53;3.78;61.03
5938;DHT22;2994;51.220;4.412;2022-12-18T16:31:19;3.82;60.78
5938;DHT22;2994;51.220;4.412;2022-12-18T16:33:44;3.80;60.79
5938;DHT22;2994;51.220;4.412;2022-12-18T16:36:10;3.84;60.53
5938;DHT22;2994;51.220;4.412;2022-12-18T16:38:36;3.84;60.64
5938;DHT22;2994;51.220;4.412;2022-12-18T16:41:01;3.83;60.89
5938;DHT22;2994;51.220;4.412;2022-12-18T16:43:45;3.86;60.44
5938;DHT22;2994;51.220;4.412;2022-12-18T16:46:10;3.89;60.40
5938;DHT22;2994;51.220;4.412;2022-12-18T16:48:36;3.91;60.26
5938;DHT22;2994;51.220;4.412;2022-12-18T16:51:03;3.92;60.16
5938;DHT22;2994;51.220;4.412;2022-12-18T16:53:30;3.88;60.15
5938;DHT22;2994;51.220;4.412;2022-12-18T16:55:57;3.92;60.18
5938;DHT22;2994;51.220;4.412;2022-12-18T16:58:23;3.98;59.86
5938;DHT22;2994;51.220;4.412;2022-12-18T17:00:48;3.94;59.92
5938;DHT22;2994;51.220;4.412;2022-12-18T17:03:13;3.97;59.83
5938;DHT22;2994;51.220;4.412;2022-12-18T17:05:39;3.99;59.71
5938;DHT22;2994;51.220;4.412;2022-12-18T17:08:04;4.01;59.77
5938;DHT22;2994;51.220;4.412;2022-12-18T17:10:30;3.75;59.52
5938;DHT22;2994;51.220;4.412;2022-12-18T17:12:55;3.94;59.47
5938;DHT22;2994;51.220;4.412;2022-12-18T17:15:21;4.00;59.48
5938;DHT22;2994;51.220;4.412;2022-12-18T17:17:46;4.01;59.46
5938;DHT22;2994;51.220;4.412;2022-12-18T17:20:12;4.06;59.30
5938;DHT22;2994;51.220;4.412;2022-12-18T17:22:37;4.06;59.35
5938;DHT22;2994;51.220;4.412;2022-12-18T17:25:03;4.06;59.15
5938;DHT22;2994;51.220;4.412;2022-12-18T17:27:28;4.10;59.19
5938;DHT22;2994;51.220;4.412;2022-12-18T17:29:54;4.12;59.16
5938;DHT22;2994;51.220;4.412;2022-12-18T17:32:19;4.12;59.36
5938;DHT22;2994;51.220;4.412;2022-12-18T17:34:45;4.14;59.13
5938;DHT22;2994;51.220;4.412;2022-12-18T17:37:10;4.14;59.15
5938;DHT22;2994;51.220;4.412;2022-12-18T17:39:36;4.12;59.32
5938;DHT22;2994;51.220;4.412;2022-12-18T17:42:01;4.17;59.48
5938;DHT22;2994;51.220;4.412;2022-12-18T17:44:28;4.12;59.68
5938;DHT22;2994;51.220;4.412;2022-12-18T17:46:53;4.15;59.70
5938;DHT22;2994;51.220;4.412;2022-12-18T17:49:18;4.19;60.03
5938;DHT22;2994;51.220;4.412;2022-12-18T17:51:44;4.18;60.25
5938;DHT22;2994;51.220;4.412;2022-12-18T17:54:10;4.19;60.31
5938;DHT22;2994;51.220;4.412;2022-12-18T17:56:35;4.16;60.89
5938;DHT22;2994;51.220;4.412;2022-12-18T17:59:01;4.18;60.80
5938;DHT22;2994;51.220;4.412;2022-12-18T18:01:27;4.18;61.09
5938;DHT22;2994;51.220;4.412;2022-12-18T18:03:53;4.16;61.57
5938;DHT22;2994;51.220;4.412;2022-12-18T18:06:20;4.10;61.92
5938;DHT22;2994;51.220;4.412;2022-12-18T18:08:46;4.16;61.97
5938;DHT22;2994;51.220;4.412;2022-12-18T18:11:15;4.18;62.12
5938;DHT22;2994;51.220;4.412;2022-12-18T18:14:00;4.17;62.37